createdAt,value
2023-04-25T00:01:41.624Z,13.49
2023-04-25T00:04:44.725Z,13.11
2023-04-25T00:07:46.992Z,13.12
2023-04-25T00:10:49.886Z,13.14
2023-04-25T00:13:51.844Z,12.63
2023-04-25T00:16:54.924Z,13.30
2023-04-25T00:19:56.986Z,13.62
2023-04-25T00:22:58.887Z,13.05
2023-04-25T00:26:00.757Z,13.13
2023-04-25T00:29:03.031Z,13.85
2023-04-25T00:32:05.145Z,13.06
2023-04-25T00:35:07.451Z,13.13
2023-04-25T00:38:09.317Z,12.99
2023-04-25T00:41:11.215Z,13.12
2023-04-25T00:44:13.187Z,12.66
2023-04-25T00:47:15.164Z,12.92
2023-04-25T00:50:17.454Z,13.16
2023-04-25T00:53:19.422Z,12.98
2023-04-25T00:56:21.323Z,12.42
2023-04-25T00:59:23.293Z,12.52
2023-04-25T01:02:26.925Z,12.52
2023-04-25T01:05:28.846Z,12.83
2023-04-25T01:08:31.394Z,12.61
2023-04-25T01:11:33.251Z,12.90
2023-04-25T01:14:35.119Z,12.76
2023-04-25T01:17:37.106Z,12.70
2023-04-25T01:20:39.365Z,13.02
2023-04-25T01:23:41.637Z,12.65
2023-04-25T01:26:50.671Z,12.47
2023-04-25T01:29:52.714Z,12.84
2023-04-25T01:32:57.998Z,12.77
2023-04-25T01:36:00.117Z,12.56
2023-04-25T01:39:02.327Z,12.45
2023-04-25T01:42:04.319Z,12.51
2023-04-25T01:45:06.870Z,12.20
2023-04-25T01:48:09.472Z,12.72
2023-04-25T01:51:12.690Z,12.26
2023-04-25T01:54:14.813Z,12.52
2023-04-25T01:57:16.658Z,12.73
2023-04-25T02:00:18.654Z,12.86
2023-04-25T02:03:20.960Z,12.44
2023-04-25T02:06:22.965Z,12.05
2023-04-25T02:09:24.830Z,12.55
2023-04-25T02:12:27.453Z,12.51
2023-04-25T02:15:29.323Z,12.35
2023-04-25T02:18:32.305Z,12.40
2023-04-25T02:21:36.775Z,12.29
2023-04-25T02:24:38.714Z,12.37
2023-04-25T02:27:40.602Z,11.99
2023-04-25T02:30:42.457Z,12.36
2023-04-25T02:33:44.383Z,12.40
2023-04-25T02:36:46.252Z,11.82
2023-04-25T02:39:48.085Z,12.58
2023-04-25T02:42:49.864Z,11.87
2023-04-25T02:45:51.944Z,12.34
2023-04-25T02:48:53.821Z,12.59
2023-04-25T02:51:55.722Z,12.67
2023-04-25T02:54:57.582Z,13.01
2023-04-25T02:57:59.697Z,12.99
2023-04-25T03:01:01.802Z,12.52
2023-04-25T03:04:03.780Z,12.76
2023-04-25T03:07:05.919Z,12.55
2023-04-25T03:10:08.180Z,12.87
2023-04-25T03:13:10.106Z,12.08
2023-04-25T03:16:12.044Z,11.95
2023-04-25T03:19:16.993Z,11.69
2023-04-25T03:22:18.894Z,12.14
2023-04-25T03:25:20.810Z,11.84
2023-04-25T03:28:22.897Z,11.60
2023-04-25T03:31:24.850Z,11.99
2023-04-25T03:34:27.048Z,11.83
2023-04-25T03:37:28.902Z,12.13
2023-04-25T03:40:30.826Z,12.62
2023-04-25T03:43:32.662Z,12.40
2023-04-25T03:46:34.565Z,12.90
2023-04-25T03:49:37.062Z,12.77
2023-04-25T03:52:39.488Z,12.68
2023-04-25T03:55:43.436Z,12.71
2023-04-25T03:58:45.539Z,12.26
2023-04-25T04:01:47.500Z,12.18
2023-04-25T04:04:49.582Z,12.17
2023-04-25T04:07:51.790Z,11.96
2023-04-25T04:10:53.634Z,11.67
2023-04-25T04:13:55.494Z,11.73
2023-04-25T04:16:57.301Z,12.01
2023-04-25T04:19:59.106Z,12.26
2023-04-25T04:23:02.282Z,12.24
2023-04-25T04:26:04.347Z,12.03
2023-04-25T04:29:06.251Z,12.80
2023-04-25T04:32:09.760Z,13.02
2023-04-25T04:35:12.058Z,12.26
2023-04-25T04:38:16.039Z,12.08
2023-04-25T04:41:17.926Z,12.40
2023-04-25T04:44:19.832Z,12.71
2023-04-25T04:47:21.862Z,12.04
2023-04-25T04:50:24.169Z,12.13
2023-04-25T04:53:26.192Z,11.85
2023-04-25T04:56:29.210Z,11.42
2023-04-25T04:59:31.097Z,11.92
2023-04-25T05:02:33.025Z,12.21
2023-04-25T05:05:35.065Z,12.21
2023-04-25T05:08:37.456Z,12.32
2023-04-25T05:11:39.276Z,11.46
2023-04-25T05:14:41.147Z,11.24
2023-04-25T05:17:42.995Z,11.19
2023-04-25T05:20:44.953Z,11.71
2023-04-25T05:23:47.087Z,11.88
2023-04-25T05:26:49.162Z,11.51
2023-04-25T05:29:51.108Z,11.58
2023-04-25T05:32:52.974Z,12.39
2023-04-25T05:35:54.994Z,12.51
2023-04-25T05:38:56.868Z,12.08
2023-04-25T05:41:58.751Z,11.03
2023-04-25T05:45:00.731Z,11.86
2023-04-25T05:48:02.617Z,11.49
2023-04-25T05:51:04.845Z,11.41
2023-04-25T05:54:06.641Z,10.92
2023-04-25T05:57:08.471Z,11.08
2023-04-25T06:00:10.712Z,10.80
2023-04-25T06:03:16.513Z,10.94
2023-04-25T06:06:19.988Z,10.87
2023-04-25T06:09:22.438Z,10.75
2023-04-25T06:12:24.624Z,11.39
2023-04-25T06:15:34.081Z,10.85
2023-04-25T06:18:36.021Z,11.24
2023-04-25T06:21:40.326Z,11.17
2023-04-25T06:24:42.284Z,11.34
2023-04-25T06:27:44.388Z,12.04
2023-04-25T06:30:46.421Z,11.52
2023-04-25T06:33:50.524Z,11.69
2023-04-25T06:36:52.615Z,11.47
2023-04-25T06:39:54.565Z,12.04
2023-04-25T06:42:56.568Z,11.83
2023-04-25T06:45:58.835Z,12.25
2023-04-25T06:49:03.754Z,11.52
2023-04-25T06:52:06.119Z,11.87
2023-04-25T06:55:08.430Z,12.09
2023-04-25T06:58:10.351Z,11.93
2023-04-25T07:01:12.340Z,11.98
2023-04-25T07:04:14.598Z,12.27
2023-04-25T07:07:18.370Z,12.05
2023-04-25T07:10:20.563Z,12.27
2023-04-25T07:13:22.637Z,12.42
2023-04-25T07:16:24.735Z,12.72
2023-04-25T07:19:27.818Z,12.85
2023-04-25T07:22:32.170Z,12.43
2023-04-25T07:25:34.199Z,12.53
2023-04-25T07:28:36.046Z,13.77
2023-04-25T07:31:38.256Z,12.97
2023-04-25T07:34:40.411Z,12.39
2023-04-25T07:37:45.215Z,12.91
2023-04-25T07:40:48.137Z,13.61
2023-04-25T07:43:50.129Z,13.76
2023-04-25T07:46:52.288Z,13.34
2023-04-25T07:49:54.658Z,13.11
2023-04-25T07:52:56.670Z,13.53
2023-04-25T07:55:58.857Z,12.96
2023-04-25T07:59:01.649Z,13.39
2023-04-25T08:02:03.634Z,14.67
2023-04-25T08:05:06.671Z,13.30
2023-04-25T08:08:08.709Z,13.46
2023-04-25T08:11:11.758Z,14.23
2023-04-25T08:14:14.185Z,14.88
2023-04-25T08:17:17.070Z,15.39
2023-04-25T08:20:19.661Z,13.69
2023-04-25T08:23:21.598Z,14.30
2023-04-25T08:26:26.004Z,14.83
2023-04-25T08:29:29.803Z,15.15
2023-04-25T08:32:32.304Z,14.54
2023-04-25T08:35:34.333Z,15.78
2023-04-25T08:38:37.649Z,14.19
2023-04-25T08:41:39.878Z,14.76
2023-04-25T08:44:41.891Z,15.17
2023-04-25T08:47:43.795Z,15.06
2023-04-25T08:50:45.728Z,14.57
2023-04-25T08:53:53.598Z,14.47
2023-04-25T08:56:59.878Z,15.28
2023-04-25T09:00:02.520Z,15.30
2023-04-25T09:03:04.877Z,15.44
2023-04-25T09:06:07.147Z,14.74
2023-04-25T09:09:10.083Z,15.10
2023-04-25T09:12:12.829Z,15.53
2023-04-25T09:18:30.738Z,15.30
2023-04-25T09:21:33.823Z,14.70
2023-04-25T09:24:37.607Z,15.69
2023-04-25T09:27:56.952Z,15.34
2023-04-25T09:30:59.168Z,15.40
2023-04-25T09:34:04.866Z,14.75
2023-04-25T09:37:07.569Z,15.79
2023-04-25T09:40:11.378Z,15.92
2023-04-25T09:43:24.013Z,15.88
2023-04-25T09:46:26.742Z,15.28
2023-04-25T09:49:28.971Z,15.01
2023-04-25T09:52:31.526Z,15.45
2023-04-25T09:55:34.120Z,15.52
2023-04-25T09:58:37.000Z,15.73
2023-04-25T10:01:41.569Z,14.93
2023-04-25T10:04:44.008Z,15.86
2023-04-25T10:07:46.111Z,16.25
2023-04-25T10:10:48.382Z,16.53
2023-04-25T10:13:51.529Z,16.87
2023-04-25T10:16:57.535Z,16.13
2023-04-25T10:19:59.778Z,15.70
2023-04-25T10:23:08.490Z,15.48
2023-04-25T10:26:13.984Z,15.35
2023-04-25T10:29:22.879Z,15.92
2023-04-25T10:32:24.949Z,14.75
2023-04-25T10:35:31.259Z,14.81
2023-04-25T10:38:35.831Z,15.68
2023-04-25T10:41:48.292Z,16.87
2023-04-25T10:45:23.298Z,17.40
2023-04-25T10:48:51.736Z,16.44
2023-04-25T10:51:59.402Z,17.05
2023-04-25T10:55:04.741Z,16.88
2023-04-25T10:58:08.220Z,16.87
2023-04-25T11:01:10.775Z,16.33
2023-04-25T11:04:23.164Z,16.70
2023-04-25T11:07:37.648Z,17.29
2023-04-25T11:10:39.698Z,16.83
2023-04-25T11:13:42.197Z,16.14
2023-04-25T11:16:44.657Z,17.15
2023-04-25T11:19:47.692Z,17.87
2023-04-25T11:22:51.008Z,19.49
2023-04-25T11:25:54.825Z,18.74
2023-04-25T11:29:01.982Z,19.80
2023-04-25T11:32:07.435Z,20.04
2023-04-25T11:35:09.754Z,19.70
2023-04-25T11:38:12.317Z,19.70
2023-04-25T11:41:14.327Z,21.77
2023-04-25T11:44:19.542Z,21.77
2023-04-25T11:47:21.617Z,19.13
2023-04-25T11:50:26.412Z,19.07
2023-04-25T11:53:29.659Z,18.63
2023-04-25T11:56:32.400Z,19.12
2023-04-25T11:59:34.769Z,17.79
2023-04-25T12:02:37.684Z,16.99
2023-04-25T12:05:41.841Z,16.88
2023-04-25T12:09:00.306Z,17.65
2023-04-25T12:12:05.726Z,16.93
2023-04-25T12:15:11.620Z,17.36
2023-04-25T12:18:13.658Z,17.70
2023-04-25T12:21:15.914Z,17.40
2023-04-25T12:24:19.378Z,19.65
2023-04-25T12:27:21.441Z,20.86
2023-04-25T12:30:25.281Z,20.72
2023-04-25T12:33:31.094Z,20.87
2023-04-25T12:36:33.949Z,24.01
2023-04-25T12:39:39.483Z,21.35
2023-04-25T12:42:41.477Z,19.01
2023-04-25T12:45:43.807Z,19.81
2023-04-25T12:48:46.270Z,18.74
2023-04-25T12:51:48.707Z,19.31
2023-04-25T12:54:50.958Z,19.80
2023-04-25T12:57:53.472Z,17.80
2023-04-25T13:00:55.874Z,18.31
2023-04-25T13:03:58.234Z,17.53
2023-04-25T13:07:00.351Z,18.03
2023-04-25T13:10:04.105Z,17.51
2023-04-25T13:13:06.675Z,17.28
2023-04-25T13:16:09.040Z,17.41
2023-04-25T13:19:12.996Z,18.23
2023-04-25T13:22:16.472Z,17.34
2023-04-25T13:25:18.510Z,16.73
2023-04-25T13:28:20.753Z,17.93
2023-04-25T13:31:23.932Z,17.47
2023-04-25T13:34:27.190Z,17.40
2023-04-25T13:37:31.978Z,17.73
2023-04-25T13:40:34.399Z,18.78
2023-04-25T13:43:37.536Z,18.55
2023-04-25T13:46:46.908Z,17.71
2023-04-25T13:49:50.909Z,17.23
2023-04-25T13:52:55.119Z,16.81
2023-04-25T13:55:57.182Z,17.10
2023-04-25T13:58:59.940Z,17.22
2023-04-25T14:02:04.372Z,17.70
2023-04-25T14:05:09.295Z,16.76
2023-04-25T14:08:12.143Z,16.74
2023-04-25T14:11:14.386Z,17.51
2023-04-25T14:14:17.362Z,17.00
2023-04-25T14:17:20.269Z,17.81
2023-04-25T14:20:25.265Z,17.70
2023-04-25T14:23:29.636Z,16.86
2023-04-25T14:26:31.913Z,16.51
2023-04-25T14:29:36.286Z,16.58
2023-04-25T14:32:38.565Z,16.25
2023-04-25T14:35:40.590Z,16.64
2023-04-25T14:38:42.840Z,16.90
2023-04-25T14:41:45.121Z,16.07
2023-04-25T14:44:47.773Z,17.08
2023-04-25T14:47:50.278Z,17.09
2023-04-25T14:50:52.408Z,16.78
2023-04-25T14:53:54.976Z,17.15
2023-04-25T14:56:58.044Z,17.35
2023-04-25T15:00:00.819Z,16.92
2023-04-25T15:03:03.210Z,16.75
2023-04-25T15:06:07.576Z,16.17
2023-04-25T15:09:12.111Z,16.35
2023-04-25T15:12:15.235Z,16.28
2023-04-25T15:15:25.928Z,16.43
2023-04-25T15:18:29.002Z,16.71
2023-04-25T15:21:32.248Z,16.35
2023-04-25T15:24:34.558Z,16.53
2023-04-25T15:27:42.746Z,16.93
2023-04-25T15:30:45.205Z,16.64
2023-04-25T15:33:47.275Z,17.00
2023-04-25T15:36:49.352Z,16.84
2023-04-25T15:39:56.384Z,17.52
2023-04-25T15:42:58.325Z,17.57
2023-04-25T15:46:00.585Z,16.95
2023-04-25T15:49:03.017Z,16.61
2023-04-25T15:52:05.453Z,17.00
2023-04-25T15:55:11.121Z,17.19
2023-04-25T15:58:13.365Z,16.01
2023-04-25T16:01:15.774Z,16.69
2023-04-25T16:04:18.160Z,16.68
2023-04-25T16:07:20.230Z,15.90
2023-04-25T16:10:22.338Z,16.19
2023-04-25T16:13:24.219Z,16.64
2023-04-25T16:16:26.696Z,16.86
2023-04-25T16:19:29.009Z,16.07
2023-04-25T16:22:31.626Z,16.11
2023-04-25T16:25:33.441Z,16.05
2023-04-25T16:28:36.030Z,15.49
2023-04-25T16:31:38.147Z,15.93
2023-04-25T16:34:40.536Z,16.13
2023-04-25T16:37:42.818Z,16.49
2023-04-25T16:40:44.697Z,16.04
2023-04-25T16:43:46.957Z,15.50
2023-04-25T16:46:49.352Z,15.05
2023-04-25T16:49:51.294Z,15.15
2023-04-25T16:52:54.727Z,14.67
2023-04-25T16:55:56.984Z,14.84
2023-04-25T16:58:59.080Z,15.43
2023-04-25T17:02:02.353Z,14.95
2023-04-25T17:05:05.444Z,15.46
2023-04-25T17:08:07.692Z,14.70
2023-04-25T17:11:10.497Z,15.42
2023-04-25T17:14:12.754Z,14.90
2023-04-25T17:17:14.700Z,15.79
2023-04-25T17:20:17.450Z,15.46
2023-04-25T17:23:19.546Z,15.28
2023-04-25T17:26:22.800Z,14.95
2023-04-25T17:29:25.090Z,15.23
2023-04-25T17:32:27.321Z,15.54
2023-04-25T17:35:29.446Z,15.22
2023-04-25T17:38:31.716Z,15.13
2023-04-25T17:41:33.782Z,14.57
2023-04-25T17:44:35.769Z,14.47
2023-04-25T17:47:37.700Z,14.33
2023-04-25T17:50:39.824Z,14.99
2023-04-25T17:53:41.770Z,14.82
2023-04-25T17:56:45.120Z,14.22
2023-04-25T17:59:47.396Z,15.34
2023-04-25T18:02:51.341Z,14.87
2023-04-25T18:05:53.416Z,15.32
2023-04-25T18:08:57.170Z,14.69
2023-04-25T18:11:59.134Z,14.36
2023-04-25T18:15:01.981Z,14.48
2023-04-25T18:18:09.752Z,14.30
2023-04-25T18:21:11.950Z,14.05
2023-04-25T18:24:14.064Z,13.86
2023-04-25T18:27:16.288Z,13.81
2023-04-25T18:30:18.724Z,14.28
2023-04-25T18:33:22.247Z,14.12
2023-04-25T18:36:24.491Z,13.66
2023-04-25T18:39:27.732Z,13.27
2023-04-25T18:42:30.210Z,13.76
2023-04-25T18:45:32.344Z,12.80
2023-04-25T18:48:34.260Z,13.04
2023-04-25T18:51:37.231Z,12.91
2023-04-25T18:54:39.193Z,13.39
2023-04-25T18:57:41.230Z,12.84
2023-04-25T19:00:45.447Z,12.62
2023-04-25T19:03:55.791Z,13.15
2023-04-25T19:06:58.492Z,12.69
2023-04-25T19:10:00.440Z,12.58
2023-04-25T19:13:02.805Z,12.71
2023-04-25T19:16:04.756Z,12.70
2023-04-25T19:19:07.734Z,12.96
2023-04-25T19:22:09.686Z,12.82
2023-04-25T19:25:11.621Z,12.51
2023-04-25T19:28:14.146Z,12.88
2023-04-25T19:31:16.111Z,12.91
2023-04-25T19:34:18.048Z,12.52
2023-04-25T19:37:20.524Z,12.66
2023-04-25T19:40:23.619Z,12.55
2023-04-25T19:43:25.469Z,12.65
2023-04-25T19:46:28.548Z,12.30
2023-04-25T19:49:31.304Z,12.21
2023-04-25T19:52:35.114Z,12.35
2023-04-25T19:55:37.102Z,12.14
2023-04-25T19:58:39.074Z,13.10
2023-04-25T20:01:41.634Z,13.00
2023-04-25T20:04:43.867Z,13.25
2023-04-25T20:07:45.918Z,12.34
2023-04-25T20:10:48.090Z,12.34
2023-04-25T20:13:50.459Z,12.46
2023-04-25T20:16:52.784Z,11.77
2023-04-25T20:19:54.829Z,12.26
2023-04-25T20:22:56.956Z,12.76
2023-04-25T20:25:59.867Z,12.82
2023-04-25T20:29:02.690Z,12.61
2023-04-25T20:32:04.801Z,11.85
2023-04-25T20:35:08.772Z,12.51
2023-04-25T20:38:11.879Z,12.24
2023-04-25T20:41:13.996Z,11.87
2023-04-25T20:44:16.012Z,12.31
2023-04-25T20:47:17.903Z,12.84
2023-04-25T20:50:20.432Z,12.04
2023-04-25T20:53:22.650Z,12.36
2023-04-25T20:56:25.369Z,12.15
2023-04-25T20:59:28.693Z,11.85
2023-04-25T21:02:31.076Z,11.89
2023-04-25T21:05:33.257Z,11.86
2023-04-25T21:08:35.309Z,12.74
2023-04-25T21:11:38.705Z,13.12
2023-04-25T21:14:40.690Z,12.30
2023-04-25T21:17:42.724Z,12.40
2023-04-25T21:20:44.896Z,11.35
2023-04-25T21:23:46.897Z,11.45
2023-04-25T21:26:48.891Z,11.93
2023-04-25T21:29:50.834Z,12.68
2023-04-25T21:32:53.160Z,12.16
2023-04-25T21:35:56.401Z,11.79
2023-04-25T21:38:58.578Z,10.84
2023-04-25T21:42:01.624Z,11.89
2023-04-25T21:45:10.379Z,12.23
2023-04-25T21:48:12.524Z,12.07
2023-04-25T21:51:14.552Z,12.08
2023-04-25T21:54:16.481Z,12.16
2023-04-25T21:57:18.488Z,12.50
2023-04-25T22:00:22.067Z,12.42
2023-04-25T22:03:24.383Z,11.40
2023-04-25T22:06:26.568Z,12.44
2023-04-25T22:09:28.358Z,11.16
2023-04-25T22:12:30.384Z,11.68
2023-04-25T22:15:32.606Z,11.27
2023-04-25T22:18:34.587Z,11.30
2023-04-25T22:21:36.773Z,11.07
2023-04-25T22:24:38.893Z,11.83
2023-04-25T22:27:44.091Z,12.15
2023-04-25T22:30:46.067Z,11.73
2023-04-25T22:33:48.798Z,11.26
2023-04-25T22:36:50.700Z,11.74
2023-04-25T22:39:53.076Z,11.66
2023-04-25T22:42:55.047Z,11.75
2023-04-25T22:45:58.822Z,10.71
2023-04-25T22:49:01.577Z,11.00
2023-04-25T22:52:04.359Z,10.60
2023-04-25T22:55:06.660Z,11.52
2023-04-25T22:58:09.521Z,11.17
2023-04-25T23:01:11.419Z,10.95
2023-04-25T23:04:13.718Z,11.18
2023-04-25T23:07:15.974Z,11.20
2023-04-25T23:10:18.810Z,11.49
2023-04-25T23:13:21.292Z,11.18
2023-04-25T23:16:23.167Z,11.27
2023-04-25T23:19:26.847Z,10.97
2023-04-25T23:22:29.328Z,11.33
2023-04-25T23:25:31.815Z,11.29
2023-04-25T23:28:33.669Z,11.34
2023-04-25T23:31:36.626Z,11.81
2023-04-25T23:34:38.850Z,11.89
2023-04-25T23:37:40.735Z,11.31
2023-04-25T23:40:42.674Z,12.26
2023-04-25T23:43:44.521Z,11.25
2023-04-25T23:46:46.593Z,12.26
2023-04-25T23:49:48.496Z,11.83
2023-04-25T23:52:50.407Z,10.64
2023-04-25T23:55:52.563Z,10.94
2023-04-25T23:58:54.808Z,10.95
